Kam Paeng Phet, Thailand
Current Conditions -  °F | °C
As of 7:00 AM on Saturday 25 Oct 2014 (Local Time) from VTPP Reporting Station
Broken Clouds Broken Clouds  
Wind Chill: 75°   Ceiling: 2000
Heat Index: 75°   Visibility: 4mi
Dew Point: 72°   Wind: 2mph
Humidity: 89%   Direction: 20°NNE
Pressure: 29.88"   Gusts: NA
Location:  16.48°N, 99.53°E
Report Text: VTPP 250000Z 02002KT 6000 BKN020 BKN300 24/22 Q1012
Loading
Personal Weather Stations






























Interactive Weather Map
Tropical Storm Tracking
New forecast layout! Learn more

10-Day Weather Forecast

Advertisements
Track Severe Weather on mobile